Time;durP1;ratioP1;P1;durP2;ratioP2;P2;SDS_P1;SDS_P2;PMS_P1;PMS_P2;Temp;Humidity;BMP_temperature;BMP_pressure;BME280_temperature;BME280_humidity;BME280_pressure;Samples;Min_cycle;Max_cycle;Signal;HPM_P1;HPM_P2
2021/08/08 00:01:29;;;;;;;1.77;1.60;;;;;;;;;;5012360;28;20482;-45
2021/08/08 00:03:55;;;;;;;2.10;1.60;;;;;;;;;;5012361;28;20402;-45
2021/08/08 00:06:21;;;;;;;1.60;1.50;;;;;;;;;;5012324;28;20404;-45
2021/08/08 00:08:47;;;;;;;1.53;1.43;;;;;;;;;;5012179;28;20424;-45
2021/08/08 00:11:13;;;;;;;2.33;1.60;;;;;;;;;;5012095;28;20417;-45
2021/08/08 00:13:39;;;;;;;1.67;1.53;;;;;;;;;;5012058;28;20522;-45
2021/08/08 00:16:05;;;;;;;3.50;1.73;;;;;;;;;;5012229;28;20374;-45
2021/08/08 00:18:31;;;;;;;4.97;2.07;;;;;;;;;;5012139;28;20421;-46
2021/08/08 00:20:57;;;;;;;2.60;2.17;;;;;;;;;;5011936;28;20881;-46
2021/08/08 00:23:23;;;;;;;2.27;1.97;;;;;;;;;;5011991;28;20743;-46
2021/08/08 00:25:50;;;;;;;2.30;1.80;;;;;;;;;;5011992;28;20440;-46
2021/08/08 00:28:16;;;;;;;4.07;1.73;;;;;;;;;;5011656;28;20409;-45
2021/08/08 00:30:42;;;;;;;1.90;1.80;;;;;;;;;;5011713;28;20463;-45
2021/08/08 00:33:08;;;;;;;3.23;1.90;;;;;;;;;;5011800;28;20401;-45
2021/08/08 00:35:34;;;;;;;2.90;1.50;;;;;;;;;;5011716;28;20950;-46
2021/08/08 00:38:00;;;;;;;5.07;1.60;;;;;;;;;;5011461;28;20478;-46
2021/08/08 00:40:26;;;;;;;2.33;1.77;;;;;;;;;;5011488;28;20403;-46
2021/08/08 00:42:52;;;;;;;2.70;1.80;;;;;;;;;;5011615;28;20913;-46
2021/08/08 00:45:20;;;;;;;2.10;2.00;;;;;;;;;;5011731;28;20431;-45
2021/08/08 00:47:46;;;;;;;2.20;1.77;;;;;;;;;;5012052;28;20423;-44
2021/08/08 00:50:12;;;;;;;3.33;1.90;;;;;;;;;;5011345;28;20406;-45
2021/08/08 00:52:39;;;;;;;29.27;1.10;;;;;;;;;;5011371;28;20490;-45
2021/08/08 00:55:05;;;;;;;40.10;10.70;;;;;;;;;;5010511;28;20490;-45
2021/08/08 00:57:31;;;;;;;2.50;2.00;;;;;;;;;;5011492;28;20423;-45
2021/08/08 00:59:57;;;;;;;77.63;58.83;;;;;;;;;;5011056;28;20410;-45
2021/08/08 01:02:23;;;;;;;16.27;12.27;;;;;;;;;;5010916;28;20454;-45
2021/08/08 01:04:53;;;;;;;2.37;2.17;;;;;;;;;;5010701;28;20817;-45
2021/08/08 01:07:21;;;;;;;2.00;1.77;;;;;;;;;;5010996;28;20435;-45
2021/08/08 01:09:52;;;;;;;4.77;2.03;;;;;;;;;;5010933;28;20435;-45
2021/08/08 01:12:19;;;;;;;5.37;1.93;;;;;;;;;;5011228;28;20772;-45
2021/08/08 01:14:45;;;;;;;2.97;1.70;;;;;;;;;;5010947;28;20559;-45
2021/08/08 01:17:14;;;;;;;5.40;2.37;;;;;;;;;;5011186;28;20420;-45
2021/08/08 01:19:42;;;;;;;3.63;2.00;;;;;;;;;;5010810;28;20451;-45
2021/08/08 01:22:10;;;;;;;3.20;2.10;;;;;;;;;;5011360;28;20488;-45
2021/08/08 01:24:36;;;;;;;2.60;2.20;;;;;;;;;;5011061;28;20380;-45
2021/08/08 01:27:03;;;;;;;2.17;2.00;;;;;;;;;;5011068;28;20439;-45
2021/08/08 01:29:30;;;;;;;3.03;1.87;;;;;;;;;;5011050;28;21013;-46
2021/08/08 01:31:56;;;;;;;2.27;2.07;;;;;;;;;;5010939;28;20424;-45
2021/08/08 01:34:22;;;;;;;2.23;2.03;;;;;;;;;;5010849;28;20477;-45
2021/08/08 01:36:48;;;;;;;3.20;2.33;;;;;;;;;;5010900;28;20772;-45
2021/08/08 01:39:19;;;;;;;4.80;2.83;;;;;;;;;;5011061;28;20404;-45
2021/08/08 01:41:50;;;;;;;3.00;2.37;;;;;;;;;;5010931;28;20932;-45
2021/08/08 01:44:18;;;;;;;2.93;2.40;;;;;;;;;;5011185;28;20947;-45
2021/08/08 01:46:44;;;;;;;2.70;2.50;;;;;;;;;;5010997;28;20410;-45
2021/08/08 01:49:11;;;;;;;4.60;2.90;;;;;;;;;;5010909;28;20394;-45
2021/08/08 01:51:37;;;;;;;4.10;2.90;;;;;;;;;;5010623;28;20386;-45
2021/08/08 01:54:03;;;;;;;3.50;3.03;;;;;;;;;;5010681;28;20422;-44
2021/08/08 01:56:29;;;;;;;3.23;2.60;;;;;;;;;;5010675;28;20460;-45
2021/08/08 01:58:55;;;;;;;4.07;2.83;;;;;;;;;;5010666;28;20477;-45
2021/08/08 02:01:26;;;;;;;4.43;2.50;;;;;;;;;;5010421;28;20780;-45
2021/08/08 02:03:52;;;;;;;5.63;4.10;;;;;;;;;;5010584;28;20482;-45
2021/08/08 02:06:18;;;;;;;6.40;3.40;;;;;;;;;;5013675;28;20502;-46
2021/08/08 02:08:44;;;;;;;3.93;2.67;;;;;;;;;;5014434;28;20421;-46
2021/08/08 02:11:10;;;;;;;5.47;3.13;;;;;;;;;;5014218;28;20403;-45
2021/08/08 02:13:36;;;;;;;12.40;3.60;;;;;;;;;;5014396;28;20412;-45
2021/08/08 02:16:02;;;;;;;10.60;3.67;;;;;;;;;;5014155;28;20753;-45
2021/08/08 02:18:28;;;;;;;3.57;3.00;;;;;;;;;;5014305;28;20763;-45
2021/08/08 02:20:54;;;;;;;3.70;3.43;;;;;;;;;;5014071;28;20413;-45
2021/08/08 02:23:20;;;;;;;4.83;3.20;;;;;;;;;;5014456;28;20455;-45
2021/08/08 02:25:50;;;;;;;3.27;2.97;;;;;;;;;;5014108;28;20808;-44
2021/08/08 02:28:16;;;;;;;4.20;3.40;;;;;;;;;;5014028;28;20432;-45
2021/08/08 02:30:42;;;;;;;4.37;3.10;;;;;;;;;;5013765;28;20389;-45
2021/08/08 02:33:08;;;;;;;6.70;3.13;;;;;;;;;;5014088;28;20379;-45
2021/08/08 02:35:34;;;;;;;6.13;3.53;;;;;;;;;;5014053;28;20530;-45
2021/08/08 02:38:00;;;;;;;3.80;3.03;;;;;;;;;;5013790;28;20956;-44
2021/08/08 02:40:26;;;;;;;8.50;4.23;;;;;;;;;;5013655;28;20592;-45
2021/08/08 02:42:52;;;;;;;6.33;3.37;;;;;;;;;;5013944;28;20405;-45
2021/08/08 02:45:18;;;;;;;6.00;2.87;;;;;;;;;;5013657;28;20504;-45
2021/08/08 02:47:44;;;;;;;7.37;3.60;;;;;;;;;;5013604;28;20423;-45
2021/08/08 02:50:12;;;;;;;4.00;2.87;;;;;;;;;;5013495;28;20408;-45
2021/08/08 02:52:41;;;;;;;6.93;3.20;;;;;;;;;;5013809;28;20447;-46
2021/08/08 02:55:07;;;;;;;7.57;2.97;;;;;;;;;;5013916;28;20432;-45
2021/08/08 02:57:33;;;;;;;9.00;3.27;;;;;;;;;;5013457;28;20444;-45
2021/08/08 02:59:59;;;;;;;5.73;2.93;;;;;;;;;;5013244;28;20433;-45
2021/08/08 03:02:25;;;;;;;7.77;3.47;;;;;;;;;;5013596;28;20766;-45
2021/08/08 03:04:51;;;;;;;6.20;3.27;;;;;;;;;;5013383;28;20467;-46
2021/08/08 03:07:17;;;;;;;5.17;2.97;;;;;;;;;;5013295;28;20435;-45
2021/08/08 03:09:43;;;;;;;5.80;3.00;;;;;;;;;;5013413;28;20421;-45
2021/08/08 03:12:09;;;;;;;5.37;2.83;;;;;;;;;;5013338;28;20499;-45
2021/08/08 03:14:35;;;;;;;6.20;3.20;;;;;;;;;;5013266;28;20794;-45
2021/08/08 03:17:01;;;;;;;5.60;3.03;;;;;;;;;;5012179;28;21120;-45
2021/08/08 03:19:27;;;;;;;7.13;2.87;;;;;;;;;;5013235;28;20815;-45
2021/08/08 03:21:53;;;;;;;4.30;3.13;;;;;;;;;;5012958;28;20404;-46
2021/08/08 03:24:19;;;;;;;4.17;3.10;;;;;;;;;;5013156;28;20441;-44
2021/08/08 03:26:45;;;;;;;4.83;2.80;;;;;;;;;;5012922;28;20525;-46
2021/08/08 03:29:11;;;;;;;5.23;2.90;;;;;;;;;;5013270;28;20420;-45
2021/08/08 03:31:37;;;;;;;5.30;3.33;;;;;;;;;;5012846;28;20916;-45
2021/08/08 03:34:03;;;;;;;8.90;3.23;;;;;;;;;;5012987;28;20426;-45
2021/08/08 03:36:29;;;;;;;5.07;3.27;;;;;;;;;;5013015;28;20415;-45
2021/08/08 03:38:55;;;;;;;5.27;3.03;;;;;;;;;;5012957;28;20409;-45
2021/08/08 03:41:21;;;;;;;4.77;3.00;;;;;;;;;;5012697;28;20381;-45
2021/08/08 03:43:47;;;;;;;6.00;3.40;;;;;;;;;;5012902;28;20418;-45
2021/08/08 03:46:13;;;;;;;5.03;2.93;;;;;;;;;;5012887;28;20397;-45
2021/08/08 03:48:39;;;;;;;3.77;3.10;;;;;;;;;;5013010;28;20419;-45
2021/08/08 03:51:05;;;;;;;4.80;3.23;;;;;;;;;;5012743;28;20498;-45
2021/08/08 03:53:31;;;;;;;6.73;2.73;;;;;;;;;;5012752;28;20403;-45
2021/08/08 03:55:57;;;;;;;4.67;2.63;;;;;;;;;;5012432;28;20411;-45
2021/08/08 03:58:29;;;;;;;7.97;3.47;;;;;;;;;;5012451;28;20394;-45
2021/08/08 04:00:55;;;;;;;7.40;3.30;;;;;;;;;;5012377;28;20379;-45
2021/08/08 04:03:21;;;;;;;7.63;3.07;;;;;;;;;;5012438;28;21010;-45
2021/08/08 04:05:47;;;;;;;9.90;3.20;;;;;;;;;;5012323;28;20888;-45
2021/08/08 04:08:13;;;;;;;3.73;3.10;;;;;;;;;;5012228;28;20905;-45
2021/08/08 04:10:39;;;;;;;5.00;2.70;;;;;;;;;;5011932;28;20866;-45
2021/08/08 04:13:05;;;;;;;6.70;3.23;;;;;;;;;;5012171;28;20915;-45
2021/08/08 04:15:31;;;;;;;4.47;2.80;;;;;;;;;;5012041;28;20834;-45
2021/08/08 04:17:57;;;;;;;6.40;2.97;;;;;;;;;;5012030;28;20961;-45
2021/08/08 04:20:23;;;;;;;6.37;2.97;;;;;;;;;;5011917;28;20748;-45
2021/08/08 04:22:48;;;;;;;11.63;3.53;;;;;;;;;;5011981;28;20431;-45
2021/08/08 04:25:14;;;;;;;8.93;3.63;;;;;;;;;;5012402;28;20442;-45
2021/08/08 04:27:40;;;;;;;6.50;3.03;;;;;;;;;;5011797;28;20444;-45
2021/08/08 04:30:06;;;;;;;9.73;3.73;;;;;;;;;;5011727;28;20425;-45
2021/08/08 04:32:32;;;;;;;7.57;3.47;;;;;;;;;;5011777;28;20377;-45
2021/08/08 04:34:58;;;;;;;9.40;3.37;;;;;;;;;;5011681;28;20444;-45
2021/08/08 04:37:24;;;;;;;3.50;3.00;;;;;;;;;;5011455;28;20444;-45
2021/08/08 04:39:50;;;;;;;3.53;2.70;;;;;;;;;;5011451;28;20467;-45
2021/08/08 04:42:16;;;;;;;7.77;3.67;;;;;;;;;;5011709;28;20387;-45
2021/08/08 04:44:42;;;;;;;4.80;2.77;;;;;;;;;;5011739;28;20405;-45
2021/08/08 04:47:08;;;;;;;6.60;3.30;;;;;;;;;;5011472;28;20443;-45
2021/08/08 04:49:34;;;;;;;6.70;3.17;;;;;;;;;;5011549;28;20470;-45
2021/08/08 04:52:02;;;;;;;6.70;3.20;;;;;;;;;;5011366;28;20390;-45
2021/08/08 04:54:28;;;;;;;8.90;3.17;;;;;;;;;;5011311;28;20429;-45
2021/08/08 04:56:54;;;;;;;5.17;2.90;;;;;;;;;;5011323;28;20402;-45
2021/08/08 04:59:20;;;;;;;4.83;2.97;;;;;;;;;;5011458;28;20442;-45
2021/08/08 05:01:46;;;;;;;10.50;3.00;;;;;;;;;;5011165;28;20388;-45
2021/08/08 05:04:12;;;;;;;7.13;3.60;;;;;;;;;;5011405;28;20466;-45
2021/08/08 05:06:38;;;;;;;4.00;2.97;;;;;;;;;;5011095;28;20389;-45
2021/08/08 05:09:04;;;;;;;6.53;3.60;;;;;;;;;;5011127;28;20813;-45
2021/08/08 05:11:31;;;;;;;7.17;3.00;;;;;;;;;;5011062;28;20386;-45
2021/08/08 05:13:57;;;;;;;4.67;3.37;;;;;;;;;;5011288;28;20799;-45
2021/08/08 05:16:23;;;;;;;8.80;4.13;;;;;;;;;;5011018;28;20891;-45
2021/08/08 05:18:49;;;;;;;9.70;3.70;;;;;;;;;;5011188;28;20419;-45
2021/08/08 05:21:15;;;;;;;10.27;3.87;;;;;;;;;;5010967;28;20374;-45
2021/08/08 05:23:41;;;;;;;8.93;4.83;;;;;;;;;;5011036;28;20385;-45
2021/08/08 05:26:07;;;;;;;10.83;3.97;;;;;;;;;;5011147;28;20438;-45
2021/08/08 05:28:33;;;;;;;13.40;3.77;;;;;;;;;;5011142;28;20418;-45
2021/08/08 05:30:59;;;;;;;9.17;4.93;;;;;;;;;;5010891;28;20396;-45
2021/08/08 05:33:26;;;;;;;7.23;3.40;;;;;;;;;;5011007;28;20378;-45
2021/08/08 05:35:52;;;;;;;9.37;4.10;;;;;;;;;;5010931;28;20440;-45
2021/08/08 05:38:18;;;;;;;11.67;3.90;;;;;;;;;;5010442;28;20421;-45
2021/08/08 05:40:44;;;;;;;10.67;3.70;;;;;;;;;;5010137;28;20407;-45
2021/08/08 05:43:10;;;;;;;11.20;3.60;;;;;;;;;;5010837;28;20372;-45
2021/08/08 05:45:36;;;;;;;8.43;4.17;;;;;;;;;;5010893;28;20425;-45
2021/08/08 05:48:02;;;;;;;9.23;3.67;;;;;;;;;;5010630;28;20444;-45
2021/08/08 05:50:28;;;;;;;6.13;3.70;;;;;;;;;;5010256;28;20499;-45
2021/08/08 05:52:54;;;;;;;10.03;4.00;;;;;;;;;;5009941;28;20408;-45
2021/08/08 05:55:20;;;;;;;4.40;3.20;;;;;;;;;;5010282;28;20456;-45
2021/08/08 05:57:46;;;;;;;8.30;3.70;;;;;;;;;;5009907;28;20394;-45
2021/08/08 06:00:12;;;;;;;10.20;3.90;;;;;;;;;;5010196;28;20440;-45
2021/08/08 06:02:38;;;;;;;8.73;3.77;;;;;;;;;;5010146;28;20868;-45
2021/08/08 06:05:04;;;;;;;8.00;3.70;;;;;;;;;;5009726;28;20566;-45
2021/08/08 06:07:30;;;;;;;10.43;4.10;;;;;;;;;;5010205;28;20760;-45
2021/08/08 06:09:56;;;;;;;9.73;3.53;;;;;;;;;;5010189;28;20402;-45
2021/08/08 06:12:22;;;;;;;8.77;4.93;;;;;;;;;;5010515;28;20452;-45
2021/08/08 06:14:48;;;;;;;10.27;4.70;;;;;;;;;;5010479;28;20446;-45
2021/08/08 06:17:14;;;;;;;12.00;4.30;;;;;;;;;;5010185;28;20391;-44
2021/08/08 06:19:40;;;;;;;10.20;4.20;;;;;;;;;;5012254;28;20748;-45
2021/08/08 06:22:06;;;;;;;9.10;3.30;;;;;;;;;;5010431;28;20390;-45
2021/08/08 06:24:32;;;;;;;11.17;3.87;;;;;;;;;;5010401;28;20849;-45
2021/08/08 06:26:58;;;;;;;10.00;4.20;;;;;;;;;;5010336;28;20430;-45
2021/08/08 06:29:24;;;;;;;9.80;3.87;;;;;;;;;;5010396;28;20404;-45
2021/08/08 06:31:50;;;;;;;7.00;3.60;;;;;;;;;;5010561;28;20883;-45
2021/08/08 06:34:16;;;;;;;9.07;4.00;;;;;;;;;;5010163;28;20462;-45
2021/08/08 06:36:42;;;;;;;3.13;2.90;;;;;;;;;;5010039;28;20428;-45
2021/08/08 06:39:08;;;;;;;9.30;3.80;;;;;;;;;;5010306;28;20945;-45
2021/08/08 06:41:34;;;;;;;7.43;3.23;;;;;;;;;;5010300;28;20400;-45
2021/08/08 06:44:00;;;;;;;8.70;3.63;;;;;;;;;;5010481;28;20394;-45
2021/08/08 06:46:26;;;;;;;11.07;3.60;;;;;;;;;;5010224;28;20459;-45
2021/08/08 06:48:52;;;;;;;9.07;3.30;;;;;;;;;;5010721;28;20425;-46
2021/08/08 06:51:18;;;;;;;8.80;4.10;;;;;;;;;;5010333;28;20412;-46
2021/08/08 06:53:44;;;;;;;7.83;2.73;;;;;;;;;;5013476;28;20858;-44
2021/08/08 06:56:10;;;;;;;6.30;3.27;;;;;;;;;;5013737;28;20467;-45
2021/08/08 07:01:39;;;;;;;2.70;2.50;;;;;;;;;;5013814;28;20932;-44
2021/08/08 07:04:05;;;;;;;10.50;3.10;;;;;;;;;;5013617;28;20409;-44
2021/08/08 07:06:31;;;;;;;8.10;3.23;;;;;;;;;;5013951;28;20401;-43
2021/08/08 07:08:57;;;;;;;7.33;3.23;;;;;;;;;;5013741;28;20890;-44
2021/08/08 07:11:23;;;;;;;8.47;3.00;;;;;;;;;;5013660;28;20384;-45
2021/08/08 07:13:49;;;;;;;8.00;3.13;;;;;;;;;;5013368;28;20379;-45
2021/08/08 07:16:15;;;;;;;7.43;3.70;;;;;;;;;;5013347;28;20765;-45
2021/08/08 07:18:43;;;;;;;7.77;3.67;;;;;;;;;;5013219;28;20432;-45
2021/08/08 07:21:09;;;;;;;5.13;2.83;;;;;;;;;;5013361;28;20677;-46
2021/08/08 07:23:35;;;;;;;7.47;4.20;;;;;;;;;;5013240;28;20845;-45
2021/08/08 07:26:01;;;;;;;5.90;3.57;;;;;;;;;;5013173;28;20492;-44
2021/08/08 07:28:27;;;;;;;6.00;3.33;;;;;;;;;;5012984;28;20396;-44
2021/08/08 07:30:53;;;;;;;5.00;3.20;;;;;;;;;;5012855;28;20383;-46
2021/08/08 07:33:19;;;;;;;10.00;3.83;;;;;;;;;;5013032;28;20401;-46
2021/08/08 07:35:46;;;;;;;8.83;3.10;;;;;;;;;;5012827;28;20963;-46
2021/08/08 07:38:12;;;;;;;12.57;3.30;;;;;;;;;;5012852;28;20710;-44
2021/08/08 07:40:38;;;;;;;8.27;3.70;;;;;;;;;;5012751;28;21029;-45
2021/08/08 07:43:05;;;;;;;10.27;3.63;;;;;;;;;;5012824;28;20860;-45
2021/08/08 07:45:31;;;;;;;7.20;3.30;;;;;;;;;;5012703;28;20889;-44
2021/08/08 07:47:57;;;;;;;8.77;3.90;;;;;;;;;;5012992;28;20483;-44
2021/08/08 07:50:23;;;;;;;8.37;4.13;;;;;;;;;;5012391;28;20410;-44
2021/08/08 07:52:49;;;;;;;6.97;3.67;;;;;;;;;;5012633;28;20897;-44
2021/08/08 07:55:15;;;;;;;6.30;3.70;;;;;;;;;;5012448;28;20491;-45
2021/08/08 07:57:41;;;;;;;4.63;3.40;;;;;;;;;;5012369;28;20426;-45
2021/08/08 08:00:08;;;;;;;7.70;3.30;;;;;;;;;;5012310;28;20409;-46
2021/08/08 08:02:34;;;;;;;9.17;4.23;;;;;;;;;;5012261;28;20414;-44
2021/08/08 08:05:00;;;;;;;9.63;3.23;;;;;;;;;;5012282;28;20964;-44
2021/08/08 08:07:26;;;;;;;6.23;4.03;;;;;;;;;;5012378;28;20446;-45
2021/08/08 08:09:52;;;;;;;8.57;4.00;;;;;;;;;;5012117;28;20893;-45
2021/08/08 08:12:18;;;;;;;7.63;3.33;;;;;;;;;;5012183;28;20486;-45
2021/08/08 08:14:44;;;;;;;7.00;3.37;;;;;;;;;;5012110;28;20605;-45
2021/08/08 08:17:10;;;;;;;7.00;2.70;;;;;;;;;;5012393;28;20419;-44
2021/08/08 08:19:36;;;;;;;7.93;3.13;;;;;;;;;;5011928;28;20769;-46
2021/08/08 08:22:02;;;;;;;4.13;2.73;;;;;;;;;;5012098;28;20400;-44
2021/08/08 08:24:28;;;;;;;6.47;2.93;;;;;;;;;;5012015;28;20780;-44
2021/08/08 08:26:54;;;;;;;5.93;3.30;;;;;;;;;;5011945;28;20520;-44
2021/08/08 08:29:20;;;;;;;7.43;3.20;;;;;;;;;;5011855;28;20436;-45
2021/08/08 08:31:46;;;;;;;4.40;3.00;;;;;;;;;;5011762;28;20502;-44
2021/08/08 08:34:12;;;;;;;5.30;2.90;;;;;;;;;;5011841;28;20882;-45
2021/08/08 08:36:38;;;;;;;6.83;3.67;;;;;;;;;;5010540;28;20950;-45
2021/08/08 08:39:05;;;;;;;6.13;3.30;;;;;;;;;;5011863;28;20449;-45
2021/08/08 08:41:32;;;;;;;6.83;2.97;;;;;;;;;;5011484;28;20737;-45
2021/08/08 08:43:59;;;;;;;7.53;3.20;;;;;;;;;;5011708;28;20413;-45
2021/08/08 08:46:25;;;;;;;4.23;3.10;;;;;;;;;;5011468;28;20966;-44
2021/08/08 08:48:55;;;;;;;8.47;3.17;;;;;;;;;;5011476;28;20430;-45
2021/08/08 08:51:33;;;;;;;14.00;3.00;;;;;;;;;;5011366;28;20433;-46
2021/08/08 08:54:00;;;;;;;4.90;2.70;;;;;;;;;;5011365;28;21042;-45
2021/08/08 08:56:26;;;;;;;5.13;3.03;;;;;;;;;;5011509;28;20406;-44
2021/08/08 08:58:52;;;;;;;7.13;2.83;;;;;;;;;;5011342;28;20419;-45
2021/08/08 09:01:18;;;;;;;9.80;2.90;;;;;;;;;;5011261;28;20453;-44
2021/08/08 09:03:45;;;;;;;7.57;2.60;;;;;;;;;;5011300;28;20411;-45
2021/08/08 09:06:11;;;;;;;10.20;2.70;;;;;;;;;;5011337;28;20880;-45
2021/08/08 09:08:37;;;;;;;7.33;2.80;;;;;;;;;;5011306;28;20455;-45
2021/08/08 09:11:04;;;;;;;5.87;2.67;;;;;;;;;;5011198;28;20781;-44
2021/08/08 09:13:30;;;;;;;5.53;2.23;;;;;;;;;;5011386;28;20770;-45
2021/08/08 09:15:56;;;;;;;27.83;3.70;;;;;;;;;;5010329;28;20454;-45
2021/08/08 09:18:23;;;;;;;7.80;2.60;;;;;;;;;;5011148;28;20509;-46
2021/08/08 09:20:50;;;;;;;11.30;3.43;;;;;;;;;;5011639;28;20482;-45
2021/08/08 09:23:16;;;;;;;9.70;3.83;;;;;;;;;;5011149;28;20407;-46
2021/08/08 09:25:49;;;;;;;5.83;3.10;;;;;;;;;;5011232;28;20433;-47
2021/08/08 09:28:15;;;;;;;7.97;2.70;;;;;;;;;;5009758;28;20442;-44
2021/08/08 09:30:42;;;;;;;4.10;2.80;;;;;;;;;;5011156;28;20922;-45
2021/08/08 09:33:09;;;;;;;9.70;2.80;;;;;;;;;;5011236;28;20771;-48
2021/08/08 09:35:37;;;;;;;11.80;3.03;;;;;;;;;;5011015;28;20456;-45
2021/08/08 09:38:07;;;;;;;5.10;2.60;;;;;;;;;;5010640;28;20455;-45
2021/08/08 09:40:33;;;;;;;8.10;2.80;;;;;;;;;;5010941;28;20414;-46
2021/08/08 09:42:59;;;;;;;5.70;3.20;;;;;;;;;;5010888;28;20433;-46
2021/08/08 09:45:35;;;;;;;8.67;2.80;;;;;;;;;;5011471;28;20465;-46
2021/08/08 09:48:01;;;;;;;8.47;3.83;;;;;;;;;;5010839;28;20487;-45
2021/08/08 09:50:29;;;;;;;9.47;3.87;;;;;;;;;;5010738;28;20819;-45
2021/08/08 09:52:59;;;;;;;9.10;3.90;;;;;;;;;;5010897;28;20435;-46
2021/08/08 09:55:28;;;;;;;13.30;3.63;;;;;;;;;;5010763;28;20866;-45
2021/08/08 09:57:54;;;;;;;6.93;2.80;;;;;;;;;;5010681;28;20469;-45
2021/08/08 10:00:31;;;;;;;5.90;2.13;;;;;;;;;;5010577;28;20895;-45
2021/08/08 10:02:58;;;;;;;9.90;3.30;;;;;;;;;;5010619;28;20442;-46
2021/08/08 10:05:25;;;;;;;7.00;2.60;;;;;;;;;;5010729;28;20983;-46
2021/08/08 10:07:51;;;;;;;7.30;2.33;;;;;;;;;;5010532;28;20435;-45
2021/08/08 10:10:18;;;;;;;14.73;3.53;;;;;;;;;;5010586;28;20414;-45
2021/08/08 10:12:44;;;;;;;9.03;2.77;;;;;;;;;;5010498;28;20399;-45
2021/08/08 10:15:11;;;;;;;9.97;3.43;;;;;;;;;;5010393;28;20450;-44
2021/08/08 10:17:41;;;;;;;8.10;2.70;;;;;;;;;;5010416;28;20507;-45
2021/08/08 10:20:08;;;;;;;8.07;3.00;;;;;;;;;;5010432;28;20395;-45
2021/08/08 10:22:34;;;;;;;12.37;3.10;;;;;;;;;;5010434;28;20918;-45
2021/08/08 10:25:00;;;;;;;5.50;2.90;;;;;;;;;;5010538;28;20968;-45
2021/08/08 10:27:27;;;;;;;11.57;3.10;;;;;;;;;;5013532;28;20466;-45
2021/08/08 10:29:55;;;;;;;6.47;2.77;;;;;;;;;;5014018;28;20767;-46
2021/08/08 10:32:24;;;;;;;9.93;3.10;;;;;;;;;;5014167;28;20406;-44
2021/08/08 10:34:50;;;;;;;7.70;2.60;;;;;;;;;;5014058;28;20548;-44
2021/08/08 10:37:16;;;;;;;6.23;3.20;;;;;;;;;;5013836;28;20526;-45
2021/08/08 10:39:44;;;;;;;9.73;3.30;;;;;;;;;;5013949;28;20399;-45
2021/08/08 10:42:10;;;;;;;7.53;2.90;;;;;;;;;;5013958;28;20396;-47
2021/08/08 10:44:53;;;;;;;3.87;2.53;;;;;;;;;;5013952;28;20409;-47
2021/08/08 10:47:25;;;;;;;7.40;2.50;;;;;;;;;;5013991;28;20834;-45
2021/08/08 10:49:51;;;;;;;7.50;2.40;;;;;;;;;;5014025;28;20433;-45
2021/08/08 10:52:17;;;;;;;4.43;2.20;;;;;;;;;;5013828;28;20416;-45
2021/08/08 10:54:50;;;;;;;3.93;2.50;;;;;;;;;;5014150;28;20439;-45
2021/08/08 10:57:17;;;;;;;4.53;2.47;;;;;;;;;;5014019;28;20427;-45
2021/08/08 10:59:44;;;;;;;9.70;2.50;;;;;;;;;;5014232;28;20903;-45
2021/08/08 11:02:11;;;;;;;4.87;2.20;;;;;;;;;;5013605;28;20396;-45
2021/08/08 11:04:37;;;;;;;7.40;3.30;;;;;;;;;;5013556;28;20438;-48
2021/08/08 11:07:04;;;;;;;6.60;2.40;;;;;;;;;;5013539;28;20434;-46
2021/08/08 11:09:40;;;;;;;4.77;2.80;;;;;;;;;;5013341;28;20422;-45
2021/08/08 11:12:06;;;;;;;8.33;2.70;;;;;;;;;;5013713;28;20887;-45
2021/08/08 11:14:33;;;;;;;2.70;2.23;;;;;;;;;;5013415;28;20501;-45
2021/08/08 11:17:01;;;;;;;5.80;2.33;;;;;;;;;;5013257;28;20934;-46
2021/08/08 11:19:31;;;;;;;9.60;2.50;;;;;;;;;;5013798;28;20418;-46
2021/08/08 11:22:05;;;;;;;7.73;2.20;;;;;;;;;;5013213;28;20399;-47
2021/08/08 11:24:30;;;;;;;3.57;2.03;;;;;;;;;;5013313;28;20399;-45
2021/08/08 11:26:56;;;;;;;12.40;2.60;;;;;;;;;;5013086;28;20930;-45
2021/08/08 11:29:22;;;;;;;4.70;2.50;;;;;;;;;;5013043;28;20403;-45
2021/08/08 11:31:52;;;;;;;7.10;2.33;;;;;;;;;;5012984;28;20411;-45
2021/08/08 11:34:23;;;;;;;5.53;2.17;;;;;;;;;;5013221;28;20880;-45
2021/08/08 11:36:49;;;;;;;4.23;1.97;;;;;;;;;;5012704;28;20434;-45
2021/08/08 11:39:15;;;;;;;7.20;2.70;;;;;;;;;;5012107;28;20399;-45
2021/08/08 11:41:41;;;;;;;7.93;2.60;;;;;;;;;;5012814;28;20419;-45
2021/08/08 11:44:12;;;;;;;4.87;2.10;;;;;;;;;;5012700;28;20414;-44
2021/08/08 11:46:39;;;;;;;3.73;2.20;;;;;;;;;;5012668;28;20895;-45
2021/08/08 11:49:21;;;;;;;6.60;2.87;;;;;;;;;;5012583;28;20426;-45
2021/08/08 11:52:01;;;;;;;5.27;2.83;;;;;;;;;;5012542;28;20410;-45
2021/08/08 11:54:36;;;;;;;12.87;2.50;;;;;;;;;;5012539;28;20480;-46
2021/08/08 11:57:01;;;;;;;4.67;2.40;;;;;;;;;;5012580;28;20416;-45
2021/08/08 11:59:28;;;;;;;6.77;2.70;;;;;;;;;;5012433;28;20416;-45
2021/08/08 12:02:01;;;;;;;6.13;2.43;;;;;;;;;;5012621;28;20443;-45
2021/08/08 12:04:27;;;;;;;10.97;2.40;;;;;;;;;;5012762;28;20490;-46
2021/08/08 12:06:54;;;;;;;4.43;2.50;;;;;;;;;;5012282;28;20925;-46
2021/08/08 12:09:23;;;;;;;6.13;2.13;;;;;;;;;;5012230;28;20406;-46
2021/08/08 12:11:54;;;;;;;5.90;2.40;;;;;;;;;;5012231;28;20414;-45
2021/08/08 12:14:31;;;;;;;4.00;2.30;;;;;;;;;;5012134;28;20465;-46
2021/08/08 12:17:01;;;;;;;15.90;7.50;;;;;;;;;;5012252;28;20881;-46
2021/08/08 12:19:31;;;;;;;4.10;2.37;;;;;;;;;;5012307;28;20401;-45
2021/08/08 12:22:04;;;;;;;6.47;2.30;;;;;;;;;;5012107;28;20414;-45
2021/08/08 12:24:32;;;;;;;3.50;1.90;;;;;;;;;;5011989;28;20414;-45
2021/08/08 12:26:58;;;;;;;2.80;1.90;;;;;;;;;;5012073;28;20430;-45
2021/08/08 12:29:31;;;;;;;2.37;2.17;;;;;;;;;;5012144;28;20616;-45
2021/08/08 12:32:08;;;;;;;3.10;2.07;;;;;;;;;;5011970;28;20909;-45
2021/08/08 12:34:34;;;;;;;7.27;2.80;;;;;;;;;;5011903;28;20470;-44
2021/08/08 12:37:07;;;;;;;7.60;2.57;;;;;;;;;;5011858;28;20442;-46
2021/08/08 12:39:33;;;;;;;4.40;2.07;;;;;;;;;;5011846;28;20446;-46
2021/08/08 12:42:02;;;;;;;3.63;2.17;;;;;;;;;;5011885;28;20929;-45
2021/08/08 12:44:32;;;;;;;4.13;2.37;;;;;;;;;;5012113;28;20413;-46
2021/08/08 12:47:05;;;;;;;4.33;1.83;;;;;;;;;;5011960;28;20423;-46
2021/08/08 12:49:34;;;;;;;5.90;2.20;;;;;;;;;;5012361;28;20457;-47
2021/08/08 12:52:00;;;;;;;2.43;1.93;;;;;;;;;;5012195;28;20404;-46
2021/08/08 12:54:26;;;;;;;2.83;1.97;;;;;;;;;;5011735;28;20454;-46
2021/08/08 12:56:52;;;;;;;2.93;1.83;;;;;;;;;;5011608;28;20456;-47
2021/08/08 12:59:18;;;;;;;2.60;1.93;;;;;;;;;;5011544;28;20391;-47
2021/08/08 13:01:45;;;;;;;4.53;2.00;;;;;;;;;;5011302;28;20402;-46
2021/08/08 13:04:11;;;;;;;4.40;1.63;;;;;;;;;;5011309;28;20815;-46
2021/08/08 13:06:37;;;;;;;3.83;1.90;;;;;;;;;;5011331;28;20458;-46
2021/08/08 13:09:03;;;;;;;4.97;2.00;;;;;;;;;;5011401;28;20407;-47
2021/08/08 13:11:32;;;;;;;3.57;1.90;;;;;;;;;;5011219;28;20415;-46
2021/08/08 13:13:58;;;;;;;4.93;2.10;;;;;;;;;;5011163;28;20407;-46
2021/08/08 13:16:24;;;;;;;2.73;1.90;;;;;;;;;;5011130;28;20399;-46
2021/08/08 13:18:50;;;;;;;4.10;1.77;;;;;;;;;;5011193;28;20442;-46
2021/08/08 13:21:16;;;;;;;2.60;1.50;;;;;;;;;;5011023;28;20501;-46
2021/08/08 13:23:43;;;;;;;4.47;1.77;;;;;;;;;;5011135;28;20775;-46
2021/08/08 13:26:09;;;;;;;13.00;1.97;;;;;;;;;;5010924;28;20895;-46
2021/08/08 13:28:35;;;;;;;4.73;1.60;;;;;;;;;;5011013;28;20474;-46
2021/08/08 13:31:01;;;;;;;2.33;1.80;;;;;;;;;;5010643;28;20403;-46
2021/08/08 13:33:27;;;;;;;4.10;1.90;;;;;;;;;;5010992;28;20470;-46
2021/08/08 13:35:53;;;;;;;5.43;2.00;;;;;;;;;;5010800;28;20454;-46
2021/08/08 13:38:19;;;;;;;4.63;1.93;;;;;;;;;;5010737;28;20450;-47
2021/08/08 13:40:45;;;;;;;2.20;1.80;;;;;;;;;;5010572;28;20460;-45
2021/08/08 13:43:11;;;;;;;2.60;1.83;;;;;;;;;;5010959;28;20490;-46
2021/08/08 13:45:37;;;;;;;1.73;1.50;;;;;;;;;;5010810;28;20395;-47
2021/08/08 13:48:03;;;;;;;3.30;1.90;;;;;;;;;;5010871;28;20442;-46
2021/08/08 13:50:29;;;;;;;3.33;1.60;;;;;;;;;;5009526;28;20407;-46
2021/08/08 13:52:55;;;;;;;5.30;2.10;;;;;;;;;;5011001;28;20421;-46
2021/08/08 13:55:21;;;;;;;2.70;2.00;;;;;;;;;;5010591;28;20458;-46
2021/08/08 13:57:47;;;;;;;4.73;2.00;;;;;;;;;;5010603;28;20419;-46
2021/08/08 14:00:13;;;;;;;3.80;1.90;;;;;;;;;;5010302;28;20922;-46
2021/08/08 14:02:40;;;;;;;4.70;2.17;;;;;;;;;;5014721;28;20728;-46
2021/08/08 14:05:11;;;;;;;2.07;1.73;;;;;;;;;;5014586;28;20457;-46
2021/08/08 14:07:36;;;;;;;2.60;2.03;;;;;;;;;;5014777;28;20435;-46
2021/08/08 14:10:03;;;;;;;5.93;2.30;;;;;;;;;;5014258;28;20481;-46
2021/08/08 14:12:29;;;;;;;7.47;2.37;;;;;;;;;;5014544;28;20442;-46
2021/08/08 14:14:55;;;;;;;4.97;2.37;;;;;;;;;;5014285;28;20509;-46
2021/08/08 14:17:21;;;;;;;3.87;1.87;;;;;;;;;;5014177;28;20484;-46
2021/08/08 14:19:47;;;;;;;3.67;1.43;;;;;;;;;;5014327;28;20412;-46
2021/08/08 14:22:13;;;;;;;6.50;1.87;;;;;;;;;;5014336;28;20950;-46
2021/08/08 14:24:39;;;;;;;3.63;1.40;;;;;;;;;;5014266;28;20918;-46
2021/08/08 14:27:05;;;;;;;4.00;2.50;;;;;;;;;;5014163;28;20423;-46
2021/08/08 14:29:31;;;;;;;3.90;2.00;;;;;;;;;;5013939;28;20780;-46
2021/08/08 14:31:57;;;;;;;4.63;2.10;;;;;;;;;;5013982;28;20414;-46
2021/08/08 14:34:23;;;;;;;2.93;2.43;;;;;;;;;;5014293;28;20480;-45
2021/08/08 14:36:49;;;;;;;2.67;2.47;;;;;;;;;;5013900;28;20403;-46
2021/08/08 14:39:15;;;;;;;2.97;2.60;;;;;;;;;;5014356;28;20431;-45
2021/08/08 14:41:41;;;;;;;2.60;2.40;;;;;;;;;;5013972;28;20492;-46